Time;durP1;ratioP1;P1;durP2;ratioP2;P2;SDS_P1;SDS_P2;PMS_P1;PMS_P2;Temp;Humidity;BMP_temperature;BMP_pressure;BME280_temperature;BME280_humidity;BME280_pressure;Samples;Min_cycle;Max_cycle;Signal;HPM_P1;HPM_P2
2021/06/28 00:00:30;;;;;;;0.53;0.53;;;15.80;99.90;;;;;;2064602;28;20660;-72
2021/06/28 00:01:31;;;;;;;0.63;0.63;;;15.80;99.90;;;;;;2064163;28;20313;-72
2021/06/28 00:02:32;;;;;;;3.90;1.03;;;15.80;99.90;;;;;;2064042;28;20190;-72
2021/06/28 00:03:33;;;;;;;0.65;0.65;;;15.80;99.90;;;;;;2063885;28;20477;-72
2021/06/28 00:04:34;;;;;;;0.67;0.67;;;15.80;99.90;;;;;;2064018;28;20266;-73
2021/06/28 00:05:34;;;;;;;0.40;0.40;;;15.80;99.90;;;;;;2064200;28;20468;-72
2021/06/28 00:06:35;;;;;;;0.60;0.60;;;15.90;99.90;;;;;;2064059;28;20173;-72
2021/06/28 00:07:36;;;;;;;0.50;0.50;;;15.90;99.90;;;;;;2064097;28;20640;-72
2021/06/28 00:08:38;;;;;;;0.70;0.70;;;15.90;99.90;;;;;;2064657;28;20268;-72
2021/06/28 00:09:38;;;;;;;0.95;0.95;;;16.00;99.90;;;;;;2064162;28;20426;-73
2021/06/28 00:10:39;;;;;;;0.53;0.53;;;16.00;99.90;;;;;;2064150;28;20186;-72
2021/06/28 00:11:40;;;;;;;0.40;0.40;;;16.00;99.90;;;;;;2064575;28;20171;-71
2021/06/28 00:12:41;;;;;;;1.13;1.03;;;16.00;99.90;;;;;;2064781;28;20233;-72
2021/06/28 00:13:43;;;;;;;0.75;0.75;;;16.00;99.90;;;;;;2063879;28;20213;-72
2021/06/28 00:14:44;;;;;;;1.07;0.97;;;16.00;99.90;;;;;;2064229;28;20252;-72
2021/06/28 00:15:45;;;;;;;0.67;0.67;;;16.00;99.90;;;;;;2064012;28;20436;-72
2021/06/28 00:16:46;;;;;;;0.60;0.60;;;16.00;99.90;;;;;;2064111;28;20648;-72
2021/06/28 00:17:49;;;;;;;0.60;0.60;;;15.90;99.90;;;;;;2072003;28;20452;-72
2021/06/28 00:18:51;;;;;;;0.40;0.40;;;15.90;99.90;;;;;;2073808;28;20659;-71
2021/06/28 00:19:52;;;;;;;0.57;0.57;;;15.80;99.90;;;;;;2066605;28;20421;-73
2021/06/28 00:20:53;;;;;;;0.70;0.70;;;15.80;99.90;;;;;;2066326;28;20190;-72
2021/06/28 00:21:54;;;;;;;2.13;0.97;;;15.80;99.90;;;;;;2066223;28;20657;-71
2021/06/28 00:22:54;;;;;;;0.40;0.40;;;15.80;99.90;;;;;;2073848;28;20182;-72
2021/06/28 00:23:55;;;;;;;0.70;0.70;;;15.80;99.90;;;;;;2065399;28;20194;-72
2021/06/28 00:24:56;;;;;;;0.77;0.77;;;15.70;99.90;;;;;;2057673;28;20203;-72
2021/06/28 00:25:57;;;;;;;0.50;0.50;;;15.80;99.90;;;;;;2065688;28;20188;-72
2021/06/28 00:26:57;;;;;;;0.82;0.82;;;15.80;99.90;;;;;;2073749;28;20228;-72
2021/06/28 00:27:58;;;;;;;0.37;0.37;;;15.80;99.90;;;;;;2065520;28;20189;-73
2021/06/28 00:28:59;;;;;;;0.70;0.70;;;15.80;99.90;;;;;;2057682;28;20175;-72
2021/06/28 00:30:00;;;;;;;0.43;0.43;;;15.80;99.90;;;;;;2065573;28;20853;-73
2021/06/28 00:31:00;;;;;;;1.27;0.90;;;15.80;99.90;;;;;;2066273;28;20171;-72
2021/06/28 00:32:02;;;;;;;0.70;0.70;;;15.80;99.90;;;;;;2065593;28;20185;-72
2021/06/28 00:33:16;;;;;;;0.90;0.90;;;15.90;99.90;;;;;;2065601;28;20677;-72
2021/06/28 00:34:17;;;;;;;0.47;0.47;;;15.90;99.90;;;;;;2065598;28;20177;-72
2021/06/28 00:35:20;;;;;;;0.70;0.70;;;15.90;99.90;;;;;;2065767;28;20424;-72
2021/06/28 00:36:21;;;;;;;0.80;0.80;;;15.90;99.90;;;;;;2057413;28;20607;-73
2021/06/28 00:37:21;;;;;;;0.87;0.60;;;16.00;99.90;;;;;;2057893;28;20440;-72
2021/06/28 00:38:22;;;;;;;0.40;0.40;;;16.00;99.90;;;;;;2065976;28;20260;-72
2021/06/28 00:39:23;;;;;;;0.63;0.63;;;16.00;99.90;;;;;;2066174;28;20182;-72
2021/06/28 00:40:25;;;;;;;0.57;0.57;;;15.90;99.90;;;;;;2073580;28;20213;-72
2021/06/28 00:41:25;;;;;;;0.67;0.67;;;15.90;99.90;;;;;;2073666;28;20511;-73
2021/06/28 00:42:26;;;;;;;0.70;0.70;;;15.90;99.90;;;;;;2073568;28;20423;-71
2021/06/28 00:43:27;;;;;;;0.85;0.77;;;15.90;99.90;;;;;;2073211;28;20221;-72
2021/06/28 00:44:28;;;;;;;0.57;0.57;;;15.90;99.90;;;;;;2066054;28;20595;-72
2021/06/28 00:45:32;;;;;;;0.80;0.80;;;15.90;99.90;;;;;;2066189;28;20705;-72
2021/06/28 00:46:33;;;;;;;0.87;0.73;;;15.90;99.90;;;;;;2065480;28;20174;-72
2021/06/28 00:47:33;;;;;;;0.40;0.40;;;15.80;99.90;;;;;;2065594;28;20425;-72
2021/06/28 00:48:34;;;;;;;0.70;0.70;;;15.90;99.90;;;;;;2073509;28;20174;-72
2021/06/28 00:49:35;;;;;;;1.30;1.17;;;15.90;99.90;;;;;;2066154;28;20628;-72
2021/06/28 00:50:41;;;;;;;0.90;0.90;;;15.90;99.90;;;;;;2073319;28;20177;-73
2021/06/28 00:51:42;;;;;;;0.60;0.60;;;15.80;99.90;;;;;;2072972;28;20874;-72
2021/06/28 00:52:47;;;;;;;0.67;0.67;;;15.80;99.90;;;;;;2073449;28;20432;-73
2021/06/28 00:53:48;;;;;;;0.43;0.43;;;15.80;99.90;;;;;;2065269;28;20285;-73
2021/06/28 00:54:49;;;;;;;0.50;0.50;;;15.80;99.90;;;;;;2065439;28;20425;-72
2021/06/28 00:55:51;;;;;;;0.50;0.50;;;15.80;99.90;;;;;;2065290;28;20178;-72
2021/06/28 00:56:53;;;;;;;0.80;0.80;;;15.80;99.90;;;;;;2049963;28;20245;-72
2021/06/28 00:57:54;;;;;;;0.77;0.77;;;15.80;99.90;;;;;;2057487;28;20438;-72
2021/06/28 00:58:56;;;;;;;0.57;0.57;;;15.80;99.90;;;;;;2057393;28;20219;-72
2021/06/28 00:59:57;;;;;;;1.10;0.88;;;15.80;99.90;;;;;;2073499;28;20256;-73
2021/06/28 01:00:57;;;;;;;0.63;0.63;;;15.80;99.90;;;;;;2065372;28;20253;-73
2021/06/28 01:02:02;;;;;;;1.07;1.03;;;15.70;99.90;;;;;;2057194;28;20496;-73
2021/06/28 01:03:03;;;;;;;0.60;0.60;;;15.70;99.90;;;;;;2057727;28;20234;-72
2021/06/28 01:04:04;;;;;;;0.80;0.80;;;15.80;99.90;;;;;;2065930;28;20435;-72
2021/06/28 01:05:10;;;;;;;0.60;0.60;;;15.80;99.90;;;;;;2065808;28;20178;-72
2021/06/28 01:06:13;;;;;;;0.68;0.68;;;15.80;99.90;;;;;;2065480;28;20182;-71
2021/06/28 01:07:14;;;;;;;0.87;0.87;;;15.80;99.90;;;;;;2065279;28;20265;-73
2021/06/28 01:08:15;;;;;;;0.53;0.53;;;15.80;99.90;;;;;;2066025;28;20417;-72
2021/06/28 01:09:15;;;;;;;0.50;0.50;;;15.70;99.90;;;;;;2065974;28;20820;-71
2021/06/28 01:10:18;;;;;;;0.60;0.60;;;15.70;99.90;;;;;;2073301;28;20182;-72
2021/06/28 01:11:19;;;;;;;0.50;0.50;;;15.60;99.90;;;;;;2072974;28;20178;-72
2021/06/28 01:12:20;;;;;;;0.83;0.80;;;15.60;99.90;;;;;;2073379;28;21201;-72
2021/06/28 01:13:21;;;;;;;2.53;1.23;;;15.60;99.90;;;;;;2073009;28;20555;-71
2021/06/28 01:14:22;;;;;;;0.60;0.60;;;15.60;99.90;;;;;;2065283;28;20186;-71
2021/06/28 01:15:24;;;;;;;0.90;0.90;;;15.70;99.90;;;;;;2057407;28;20265;-71
2021/06/28 01:16:25;;;;;;;0.57;0.57;;;15.80;99.90;;;;;;2065188;28;20440;-71
2021/06/28 01:17:26;;;;;;;3.33;0.80;;;15.80;99.90;;;;;;2073442;28;20903;-71
2021/06/28 01:18:28;;;;;;;3.67;1.33;;;15.80;99.90;;;;;;2065397;28;20421;-71
2021/06/28 01:19:35;;;;;;;0.50;0.50;;;15.80;99.90;;;;;;2065293;28;20433;-72
2021/06/28 01:20:37;;;;;;;0.70;0.70;;;15.80;99.90;;;;;;2065416;28;20513;-72
2021/06/28 01:21:41;;;;;;;0.80;0.80;;;15.80;99.90;;;;;;2065397;28;20186;-71
2021/06/28 01:22:51;;;;;;;0.73;0.73;;;15.80;99.90;;;;;;2066030;28;20182;-72
2021/06/28 01:23:52;;;;;;;1.33;0.68;;;15.90;99.90;;;;;;2065004;28;20209;-71
2021/06/28 01:24:58;;;;;;;0.63;0.50;;;15.90;99.90;;;;;;2049299;28;20180;-73
2021/06/28 01:26:07;;;;;;;0.60;0.60;;;15.90;99.90;;;;;;2050687;28;20207;-72
2021/06/28 01:27:08;;;;;;;0.60;0.60;;;15.90;99.90;;;;;;2066613;28;20410;-72
2021/06/28 01:28:09;;;;;;;0.77;0.77;;;15.90;99.90;;;;;;2068190;28;20191;-72
2021/06/28 01:29:10;;;;;;;0.70;0.70;;;15.90;99.90;;;;;;2076534;28;20189;-72
2021/06/28 01:30:16;;;;;;;0.50;0.50;;;15.90;99.90;;;;;;2075206;28;20826;-71
2021/06/28 01:31:17;;;;;;;1.23;1.23;;;15.90;99.90;;;;;;2066071;28;20859;-71
2021/06/28 01:32:19;;;;;;;0.60;0.60;;;15.90;99.90;;;;;;2065900;28;20252;-71
2021/06/28 01:33:21;;;;;;;0.73;0.73;;;15.90;99.90;;;;;;2065630;28;20433;-71
2021/06/28 01:34:21;;;;;;;0.43;0.43;;;15.80;99.90;;;;;;2073224;28;20424;-71
2021/06/28 01:35:23;;;;;;;0.67;0.67;;;15.80;99.90;;;;;;2073561;28;20177;-71
2021/06/28 01:36:24;;;;;;;0.80;0.80;;;15.80;99.90;;;;;;2065803;28;20185;-71
2021/06/28 01:37:28;;;;;;;0.70;0.70;;;15.80;99.90;;;;;;2073154;28;20174;-72
2021/06/28 01:38:28;;;;;;;0.93;0.77;;;15.90;99.90;;;;;;2072790;28;20218;-71
2021/06/28 01:39:29;;;;;;;0.50;0.50;;;15.80;99.90;;;;;;2073173;28;20193;-72
2021/06/28 01:40:30;;;;;;;0.70;0.70;;;15.80;99.90;;;;;;2073156;28;20986;-71
2021/06/28 01:41:31;;;;;;;0.60;0.60;;;15.80;99.90;;;;;;2065172;28;20174;-72
2021/06/28 01:42:32;;;;;;;0.73;0.73;;;15.70;99.90;;;;;;2065073;28;20687;-72
2021/06/28 01:43:33;;;;;;;0.68;0.68;;;15.70;99.90;;;;;;2056874;28;20218;-72
2021/06/28 01:44:34;;;;;;;0.53;0.53;;;15.70;99.90;;;;;;2064933;28;20182;-71
2021/06/28 01:45:35;;;;;;;0.90;0.63;;;15.70;99.90;;;;;;2073310;28;20548;-72
2021/06/28 01:46:37;;;;;;;1.70;0.77;;;15.70;99.90;;;;;;2072951;28;20177;-71
2021/06/28 01:47:39;;;;;;;1.30;0.75;;;15.70;99.90;;;;;;2065632;28;20799;-71
2021/06/28 01:48:40;;;;;;;0.82;0.82;;;15.70;99.90;;;;;;2073076;28;20212;-72
2021/06/28 01:49:41;;;;;;;0.60;0.60;;;15.70;99.90;;;;;;2073354;28;20181;-71
2021/06/28 01:50:43;;;;;;;1.02;0.88;;;15.70;99.90;;;;;;2057020;28;20228;-71
2021/06/28 01:51:43;;;;;;;0.70;0.70;;;15.60;99.90;;;;;;2065053;28;20405;-72
2021/06/28 01:52:45;;;;;;;0.70;0.70;;;15.60;99.90;;;;;;2073764;28;20184;-72
2021/06/28 01:53:46;;;;;;;0.75;0.75;;;15.60;99.90;;;;;;2064736;28;20731;-72
2021/06/28 01:54:46;;;;;;;0.60;0.60;;;15.60;99.90;;;;;;2065071;28;20266;-72
2021/06/28 01:55:47;;;;;;;0.50;0.50;;;15.50;99.90;;;;;;2065094;28;20209;-73
2021/06/28 01:56:48;;;;;;;0.87;0.87;;;15.50;99.90;;;;;;2065531;28;20626;-72
2021/06/28 01:57:57;;;;;;;1.17;1.00;;;15.50;99.90;;;;;;2065752;28;20441;-73
2021/06/28 01:58:57;;;;;;;0.75;0.75;;;15.60;99.90;;;;;;2073236;28;20173;-72
2021/06/28 01:59:59;;;;;;;1.70;1.27;;;15.60;99.90;;;;;;2073355;28;20665;-72
2021/06/28 02:01:00;;;;;;;1.17;1.08;;;15.60;99.90;;;;;;2065928;28;20692;-73
2021/06/28 02:02:04;;;;;;;0.60;0.60;;;15.60;99.90;;;;;;2065003;28;20178;-72
2021/06/28 02:03:17;;;;;;;0.60;0.60;;;15.50;99.90;;;;;;2064863;28;20674;-72
2021/06/28 02:04:18;;;;;;;0.60;0.60;;;15.50;99.90;;;;;;2073133;28;20235;-72
2021/06/28 02:05:19;;;;;;;0.30;0.30;;;15.50;99.90;;;;;;2073143;28;21042;-71
2021/06/28 02:06:19;;;;;;;0.57;0.57;;;15.50;99.90;;;;;;2065730;28;20174;-72
2021/06/28 02:07:23;;;;;;;0.80;0.80;;;15.50;99.90;;;;;;2072995;28;20531;-71
2021/06/28 02:08:32;;;;;;;0.85;0.85;;;15.50;99.90;;;;;;2072735;28;20189;-71
2021/06/28 02:09:35;;;;;;;0.88;0.85;;;15.50;99.90;;;;;;2072845;28;20173;-72
2021/06/28 02:10:38;;;;;;;0.73;0.73;;;15.60;99.90;;;;;;2064910;28;20263;-71
2021/06/28 02:11:38;;;;;;;0.60;0.60;;;15.60;99.90;;;;;;2064937;28;20178;-71
2021/06/28 02:12:39;;;;;;;0.60;0.60;;;15.50;99.90;;;;;;2072952;28;20182;-70
2021/06/28 02:13:40;;;;;;;0.97;0.90;;;15.50;99.90;;;;;;2065062;28;20198;-71
2021/06/28 02:14:40;;;;;;;1.10;1.10;;;15.50;99.90;;;;;;2065503;28;20254;-71
2021/06/28 02:15:41;;;;;;;1.13;1.13;;;15.60;99.90;;;;;;2065461;28;20190;-72
2021/06/28 02:16:46;;;;;;;0.73;0.70;;;15.50;99.90;;;;;;2064649;28;20241;-73
2021/06/28 02:17:47;;;;;;;0.50;0.50;;;15.50;99.90;;;;;;2057357;28;20202;-72
2021/06/28 02:18:48;;;;;;;0.90;0.90;;;15.50;99.90;;;;;;2056702;28;20187;-72
2021/06/28 02:19:49;;;;;;;0.67;0.67;;;15.50;99.90;;;;;;2056656;28;20213;-73
2021/06/28 02:20:54;;;;;;;1.07;1.07;;;15.50;99.90;;;;;;2056860;28;20214;-72
2021/06/28 02:21:55;;;;;;;1.88;0.90;;;15.60;99.90;;;;;;2057268;28;20202;-72
2021/06/28 02:23:21;;;;;;;0.67;0.67;;;15.50;99.90;;;;;;2064848;28;20186;-71
2021/06/28 02:24:22;;;;;;;0.80;0.80;;;15.50;99.90;;;;;;2065334;28;20185;-71
2021/06/28 02:25:23;;;;;;;0.43;0.43;;;15.50;99.90;;;;;;2072795;28;20684;-72
2021/06/28 02:26:23;;;;;;;0.53;0.53;;;15.60;99.90;;;;;;2072700;28;20186;-72
2021/06/28 02:27:24;;;;;;;1.33;1.23;;;15.60;99.90;;;;;;2065311;28;20178;-72
2021/06/28 02:28:29;;;;;;;1.07;0.97;;;15.50;99.90;;;;;;2065311;28;20278;-72
2021/06/28 02:29:29;;;;;;;0.63;0.63;;;15.50;99.90;;;;;;2072782;28;20178;-71
2021/06/28 02:30:30;;;;;;;0.80;0.80;;;15.50;99.90;;;;;;2064472;28;20186;-71
2021/06/28 02:31:31;;;;;;;4.37;1.03;;;15.50;99.90;;;;;;2064653;28;20210;-73
2021/06/28 02:32:32;;;;;;;0.50;0.50;;;15.60;99.90;;;;;;2064580;28;20687;-72
2021/06/28 02:33:35;;;;;;;1.00;1.00;;;15.60;99.90;;;;;;2056402;28;20202;-72
2021/06/28 02:34:35;;;;;;;0.63;0.63;;;15.60;99.90;;;;;;2056766;28;20202;-72
2021/06/28 02:35:36;;;;;;;1.40;1.07;;;15.60;99.90;;;;;;2056642;28;20186;-72
2021/06/28 02:36:37;;;;;;;0.83;0.73;;;15.60;99.90;;;;;;2056489;28;20861;-72
2021/06/28 02:37:40;;;;;;;1.13;0.88;;;15.60;99.90;;;;;;2064676;28;20186;-72
2021/06/28 02:38:41;;;;;;;0.80;0.80;;;15.60;99.90;;;;;;2072443;28;20182;-72
2021/06/28 02:39:42;;;;;;;0.77;0.77;;;15.60;99.90;;;;;;2072881;28;20186;-72
2021/06/28 02:40:43;;;;;;;0.50;0.50;;;15.50;99.90;;;;;;2064298;28;20186;-73
2021/06/28 02:41:44;;;;;;;0.67;0.60;;;15.60;99.90;;;;;;2072591;28;20186;-72
2021/06/28 02:42:44;;;;;;;0.67;0.67;;;15.60;99.90;;;;;;2072608;28;20226;-72
2021/06/28 02:43:47;;;;;;;0.73;0.73;;;15.60;99.90;;;;;;2064183;28;20273;-73
2021/06/28 02:44:47;;;;;;;0.70;0.70;;;15.70;99.90;;;;;;2056674;28;20207;-72
2021/06/28 02:45:49;;;;;;;0.67;0.67;;;15.70;99.90;;;;;;2064522;28;20253;-72
2021/06/28 02:46:50;;;;;;;0.82;0.82;;;15.70;99.90;;;;;;2065023;28;20171;-72
2021/06/28 02:47:51;;;;;;;0.80;0.80;;;15.60;99.90;;;;;;2064979;28;20672;-73
2021/06/28 02:48:52;;;;;;;0.77;0.77;;;15.60;99.90;;;;;;2064946;28;20273;-72
2021/06/28 02:49:52;;;;;;;0.80;0.80;;;15.60;99.90;;;;;;2072281;28;20181;-72
2021/06/28 02:50:53;;;;;;;0.87;0.87;;;15.50;99.90;;;;;;2072532;28;20264;-72
2021/06/28 02:51:54;;;;;;;0.80;0.80;;;15.50;99.90;;;;;;2064936;28;20204;-71
2021/06/28 02:52:55;;;;;;;1.10;0.77;;;15.50;99.90;;;;;;2065057;28;20182;-73
2021/06/28 02:53:56;;;;;;;0.70;0.70;;;15.50;99.90;;;;;;2064759;28;20259;-71
2021/06/28 02:54:57;;;;;;;1.00;1.00;;;15.50;99.90;;;;;;2065163;28;20519;-70
2021/06/28 02:56:12;;;;;;;0.97;0.97;;;15.50;99.90;;;;;;2063404;28;20210;-73
2021/06/28 02:57:13;;;;;;;0.68;0.68;;;15.50;99.90;;;;;;2067097;28;20708;-72
2021/06/28 02:58:16;;;;;;;0.83;0.83;;;15.50;99.90;;;;;;2065583;28;20192;-71
2021/06/28 02:59:16;;;;;;;0.98;0.93;;;15.40;99.90;;;;;;2060689;28;20260;-70
2021/06/28 03:00:18;;;;;;;1.70;1.30;;;15.40;99.90;;;;;;2064408;28;20179;-72
2021/06/28 03:01:22;;;;;;;1.40;1.25;;;15.50;99.90;;;;;;2064401;28;20190;-71
2021/06/28 03:02:23;;;;;;;0.57;0.57;;;15.50;99.90;;;;;;2056793;28;20250;-71
2021/06/28 03:03:24;;;;;;;0.43;0.43;;;15.40;99.90;;;;;;2056055;28;20630;-72
2021/06/28 03:04:24;;;;;;;0.90;0.90;;;15.40;99.90;;;;;;2048262;28;20179;-71
2021/06/28 03:05:26;;;;;;;0.90;0.90;;;15.40;99.90;;;;;;2056384;28;20239;-71
2021/06/28 03:06:27;;;;;;;1.60;0.60;;;15.40;99.90;;;;;;2064416;28;20185;-71
2021/06/28 03:07:27;;;;;;;1.30;1.20;;;15.40;99.90;;;;;;2056337;28;20579;-73
2021/06/28 03:08:29;;;;;;;0.63;0.60;;;15.50;99.90;;;;;;2056241;28;20182;-71
2021/06/28 03:09:29;;;;;;;1.08;1.08;;;15.50;99.90;;;;;;2064391;28;20274;-72
2021/06/28 03:10:30;;;;;;;0.63;0.63;;;15.40;99.90;;;;;;2065070;28;20186;-71
2021/06/28 03:11:31;;;;;;;0.70;0.70;;;15.40;99.90;;;;;;2064981;28;20179;-71
2021/06/28 03:12:31;;;;;;;0.90;0.90;;;15.40;99.90;;;;;;2064457;28;20189;-73
2021/06/28 03:13:33;;;;;;;0.63;0.63;;;15.30;99.90;;;;;;2056028;28;20624;-71
2021/06/28 03:14:33;;;;;;;1.25;0.80;;;15.30;99.90;;;;;;2056665;28;20189;-71
2021/06/28 03:15:34;;;;;;;1.37;0.93;;;15.30;99.90;;;;;;2056347;28;20249;-72
2021/06/28 03:16:35;;;;;;;0.57;0.57;;;15.30;99.90;;;;;;2064525;28;20186;-71
2021/06/28 03:17:36;;;;;;;1.77;0.90;;;15.30;99.90;;;;;;2064961;28;20189;-71
2021/06/28 03:18:37;;;;;;;0.73;0.73;;;15.30;99.90;;;;;;2064453;28;20285;-71
2021/06/28 03:19:38;;;;;;;0.70;0.70;;;15.30;99.90;;;;;;2064307;28;20232;-72
2021/06/28 03:20:39;;;;;;;1.00;0.73;;;15.20;99.90;;;;;;2075041;28;20640;-71
2021/06/28 03:21:39;;;;;;;0.70;0.70;;;15.20;99.90;;;;;;2056816;28;20269;-71
2021/06/28 03:22:42;;;;;;;0.57;0.57;;;15.10;99.90;;;;;;2056257;28;20183;-72
2021/06/28 03:23:44;;;;;;;0.85;0.85;;;15.10;99.90;;;;;;2048010;28;20634;-73
2021/06/28 03:24:45;;;;;;;1.17;1.08;;;15.10;99.90;;;;;;2048360;28;20255;-71
2021/06/28 03:25:46;;;;;;;1.30;1.20;;;15.20;99.90;;;;;;2056216;28;20203;-72
2021/06/28 03:26:47;;;;;;;0.80;0.80;;;15.10;99.90;;;;;;2056192;28;20221;-71
2021/06/28 03:27:47;;;;;;;0.90;0.90;;;15.10;99.90;;;;;;2057547;28;20175;-72
2021/06/28 03:28:48;;;;;;;0.97;0.83;;;15.10;99.90;;;;;;2065535;28;20741;-72
2021/06/28 03:29:49;;;;;;;0.70;0.70;;;15.10;99.90;;;;;;2057910;28;20171;-71
2021/06/28 03:30:50;;;;;;;0.77;0.77;;;15.10;99.90;;;;;;2057052;28;20167;-71
2021/06/28 03:31:50;;;;;;;0.70;0.70;;;15.10;99.90;;;;;;2056777;28;20179;-71
2021/06/28 03:32:51;;;;;;;0.60;0.60;;;15.10;99.90;;;;;;2056985;28;20175;-71
2021/06/28 03:33:52;;;;;;;2.53;1.43;;;15.10;99.90;;;;;;2056512;28;20203;-72
2021/06/28 03:34:52;;;;;;;0.83;0.83;;;15.00;99.90;;;;;;2056880;28;20834;-72
2021/06/28 03:35:53;;;;;;;3.20;1.17;;;15.00;99.90;;;;;;2056028;28;20183;-71
2021/06/28 03:36:54;;;;;;;0.80;0.80;;;15.00;99.90;;;;;;2056223;28;20308;-72
2021/06/28 03:37:55;;;;;;;0.90;0.90;;;15.00;99.90;;;;;;2056804;28;20179;-71
2021/06/28 03:38:56;;;;;;;1.00;1.00;;;14.90;99.90;;;;;;2056883;28;20183;-71
2021/06/28 03:39:56;;;;;;;3.60;1.10;;;14.90;99.90;;;;;;2056782;28;20194;-72
2021/06/28 03:40:57;;;;;;;1.07;0.97;;;14.90;99.90;;;;;;2056018;28;20190;-72
2021/06/28 03:41:58;;;;;;;1.27;1.17;;;14.90;99.90;;;;;;2056149;28;20178;-72
2021/06/28 03:43:09;;;;;;;1.00;0.90;;;14.90;99.90;;;;;;2056064;28;20693;-72
2021/06/28 03:44:09;;;;;;;0.77;0.77;;;14.90;99.90;;;;;;2049447;28;20170;-71
2021/06/28 03:45:12;;;;;;;1.07;1.03;;;14.80;99.90;;;;;;2056161;28;20175;-72
2021/06/28 03:46:13;;;;;;;1.38;0.57;;;14.80;99.90;;;;;;2055929;28;20344;-71
2021/06/28 03:47:14;;;;;;;0.80;0.80;;;14.80;99.90;;;;;;2056344;28;20754;-72
2021/06/28 03:48:15;;;;;;;1.27;1.17;;;14.80;99.90;;;;;;2072007;28;20178;-72
2021/06/28 03:49:15;;;;;;;0.90;0.90;;;14.80;99.90;;;;;;2064321;28;20623;-71
2021/06/28 03:50:16;;;;;;;0.67;0.67;;;14.80;99.90;;;;;;2056090;28;20842;-72
2021/06/28 03:51:17;;;;;;;0.80;0.80;;;14.80;99.90;;;;;;2056112;28;20202;-71
2021/06/28 03:52:17;;;;;;;0.57;0.57;;;14.80;99.90;;;;;;2055934;28;20191;-72
2021/06/28 03:53:18;;;;;;;0.80;0.80;;;14.80;99.90;;;;;;2056491;28;20175;-72
2021/06/28 03:54:19;;;;;;;0.80;0.80;;;14.80;99.90;;;;;;2055876;28;20717;-72
2021/06/28 03:55:20;;;;;;;0.67;0.67;;;14.80;99.90;;;;;;2056287;28;20186;-72
2021/06/28 03:56:21;;;;;;;0.90;0.90;;;14.80;99.90;;;;;;2056569;28;20193;-71
2021/06/28 03:57:21;;;;;;;0.67;0.67;;;14.80;99.90;;;;;;2056705;28;20183;-72
2021/06/28 03:58:22;;;;;;;0.93;0.83;;;14.80;99.90;;;;;;2056129;28;20175;-72
2021/06/28 03:59:23;;;;;;;0.73;0.73;;;14.80;99.90;;;;;;2056128;28;20186;-72
2021/06/28 04:00:27;;;;;;;1.27;1.10;;;14.80;99.90;;;;;;2056153;28;20190;-72
2021/06/28 04:01:27;;;;;;;0.85;0.85;;;14.70;99.90;;;;;;2063921;28;20188;-72
2021/06/28 04:02:28;;;;;;;0.83;0.83;;;14.70;99.90;;;;;;2056004;28;20179;-73
2021/06/28 04:03:31;;;;;;;1.27;1.17;;;14.70;99.90;;;;;;2055553;28;20211;-71
2021/06/28 04:04:32;;;;;;;1.77;1.45;;;14.80;99.90;;;;;;2064471;28;20174;-72
2021/06/28 04:05:33;;;;;;;0.73;0.73;;;14.70;99.90;;;;;;2071441;28;20178;-73
2021/06/28 04:06:35;;;;;;;0.50;0.50;;;14.70;99.90;;;;;;2056592;28;20183;-72
2021/06/28 04:07:36;;;;;;;2.05;1.13;;;14.70;99.90;;;;;;2055788;28;20182;-72
2021/06/28 04:08:38;;;;;;;1.43;1.33;;;14.70;99.90;;;;;;2055934;28;20207;-72
2021/06/28 04:09:39;;;;;;;2.40;1.02;;;14.70;99.90;;;;;;2064123;28;20182;-73
2021/06/28 04:10:40;;;;;;;0.90;0.90;;;14.70;99.90;;;;;;2072040;28;20216;-72
2021/06/28 04:11:40;;;;;;;1.07;1.07;;;14.70;99.90;;;;;;2055803;28;20269;-72
2021/06/28 04:12:42;;;;;;;1.37;1.27;;;14.70;99.90;;;;;;2055866;28;20206;-72
2021/06/28 04:13:43;;;;;;;0.90;0.90;;;14.70;99.90;;;;;;2055463;28;20211;-72
2021/06/28 04:14:43;;;;;;;2.17;1.97;;;14.70;99.90;;;;;;2055836;28;20266;-72
2021/06/28 04:15:44;;;;;;;1.30;1.10;;;14.70;99.90;;;;;;2063711;28;20187;-72
2021/06/28 04:16:46;;;;;;;1.08;1.02;;;14.70;99.90;;;;;;2063957;28;20361;-73
2021/06/28 04:17:54;;;;;;;1.40;1.30;;;14.70;99.90;;;;;;2055768;28;20681;-72
2021/06/28 04:18:55;;;;;;;1.00;1.00;;;14.80;99.90;;;;;;2057156;28;20638;-71
2021/06/28 04:19:56;;;;;;;2.13;1.37;;;14.80;99.90;;;;;;2063863;28;20273;-72
2021/06/28 04:20:57;;;;;;;3.23;0.90;;;14.80;99.90;;;;;;2055894;28;20187;-71
2021/06/28 04:21:58;;;;;;;1.48;1.38;;;14.80;99.90;;;;;;2055742;28;20187;-72
2021/06/28 04:22:59;;;;;;;1.07;1.00;;;14.80;99.90;;;;;;2055752;28;20175;-72
2021/06/28 04:24:03;;;;;;;0.90;0.90;;;14.80;99.90;;;;;;2055512;28;20198;-71
2021/06/28 04:25:07;;;;;;;2.30;1.27;;;14.90;99.90;;;;;;2064435;28;20253;-72
2021/06/28 04:26:08;;;;;;;0.70;0.70;;;14.90;99.90;;;;;;2062944;28;20693;-72
2021/06/28 04:27:09;;;;;;;0.73;0.73;;;14.90;99.90;;;;;;2047912;28;20235;-72
2021/06/28 04:28:11;;;;;;;2.03;1.33;;;14.90;99.90;;;;;;2055763;28;20552;-72
2021/06/28 04:29:11;;;;;;;0.88;0.88;;;15.00;99.90;;;;;;2055869;28;20190;-72
2021/06/28 04:30:16;;;;;;;1.00;1.00;;;15.00;99.90;;;;;;2055777;28;20697;-72
2021/06/28 04:31:17;;;;;;;0.98;0.98;;;15.00;99.90;;;;;;2055864;28;20186;-72
2021/06/28 04:32:17;;;;;;;0.80;0.77;;;15.00;99.90;;;;;;2055683;28;20191;-72
2021/06/28 04:33:18;;;;;;;0.80;0.80;;;15.00;99.90;;;;;;2056200;28;20589;-72
2021/06/28 04:34:19;;;;;;;1.70;0.73;;;15.10;99.90;;;;;;2055573;28;20245;-72
2021/06/28 04:35:26;;;;;;;0.97;0.97;;;15.10;99.90;;;;;;2055734;28;20179;-72
2021/06/28 04:36:27;;;;;;;1.30;0.77;;;15.00;99.90;;;;;;2056247;28;20179;-72
2021/06/28 04:37:28;;;;;;;1.00;1.00;;;15.10;99.90;;;;;;2055835;28;20183;-71
2021/06/28 04:38:28;;;;;;;1.10;1.00;;;15.10;99.90;;;;;;2055733;28;20191;-72
2021/06/28 04:39:29;;;;;;;0.80;0.80;;;15.00;99.90;;;;;;2063871;28;20673;-71
2021/06/28 04:40:31;;;;;;;1.30;1.20;;;15.10;99.90;;;;;;2063782;28;20272;-72
2021/06/28 04:41:32;;;;;;;1.13;1.13;;;15.10;99.90;;;;;;2064160;28;20221;-71
2021/06/28 04:42:33;;;;;;;1.20;1.20;;;15.10;99.90;;;;;;2071749;28;20557;-71
2021/06/28 04:43:34;;;;;;;0.77;0.77;;;15.10;99.90;;;;;;2055435;28;20251;-71
2021/06/28 04:44:35;;;;;;;1.17;1.17;;;15.20;99.90;;;;;;2055595;28;20270;-72
2021/06/28 04:45:35;;;;;;;1.23;0.90;;;15.20;99.90;;;;;;2055771;28;20183;-71
2021/06/28 04:46:36;;;;;;;0.90;0.90;;;15.20;99.90;;;;;;2055619;28;21026;-71
2021/06/28 04:47:37;;;;;;;1.00;0.70;;;15.20;99.90;;;;;;2056328;28;20235;-72
2021/06/28 04:48:38;;;;;;;1.60;0.85;;;15.20;99.90;;;;;;2055667;28;20179;-72
2021/06/28 04:49:39;;;;;;;1.63;1.53;;;15.20;99.90;;;;;;2055729;28;20201;-72
2021/06/28 04:50:40;;;;;;;0.93;0.93;;;15.30;99.90;;;;;;2063687;28;20175;-71
2021/06/28 04:51:40;;;;;;;1.30;1.20;;;15.40;99.90;;;;;;2056418;28;20226;-73
2021/06/28 04:52:42;;;;;;;1.33;1.23;;;15.50;99.90;;;;;;2056322;28;20175;-71
2021/06/28 04:53:43;;;;;;;3.83;1.60;;;15.60;99.90;;;;;;2055529;28;20203;-72
2021/06/28 04:54:44;;;;;;;1.40;1.27;;;15.60;99.90;;;;;;2055778;28;20659;-72
2021/06/28 04:55:46;;;;;;;1.17;1.17;;;15.60;99.90;;;;;;2055616;28;20191;-72
2021/06/28 04:56:46;;;;;;;1.45;1.27;;;15.70;99.90;;;;;;2055402;28;20277;-72
2021/06/28 04:57:49;;;;;;;1.10;1.10;;;15.70;99.90;;;;;;2060135;28;20603;-72
2021/06/28 04:58:51;;;;;;;0.68;0.68;;;15.70;99.90;;;;;;2064263;28;20555;-71
2021/06/28 04:59:51;;;;;;;1.15;1.08;;;15.80;99.90;;;;;;2063778;28;20605;-72
2021/06/28 05:00:52;;;;;;;1.30;1.03;;;15.80;99.90;;;;;;2055771;28;20183;-71
2021/06/28 05:01:53;;;;;;;1.23;1.13;;;15.80;99.90;;;;;;2063699;28;20576;-72
2021/06/28 05:02:54;;;;;;;0.83;0.80;;;15.70;99.90;;;;;;2063878;28;20179;-72
2021/06/28 05:03:54;;;;;;;1.17;0.97;;;15.70;99.90;;;;;;2063542;28;20216;-73
2021/06/28 05:04:55;;;;;;;0.97;0.90;;;15.70;99.90;;;;;;2065268;28;20417;-71
2021/06/28 05:05:56;;;;;;;1.50;1.40;;;15.80;99.90;;;;;;2065237;28;20175;-72
2021/06/28 05:06:56;;;;;;;1.17;0.87;;;15.80;99.90;;;;;;2066011;28;20171;-71
2021/06/28 05:07:57;;;;;;;0.53;0.53;;;15.90;99.90;;;;;;2065855;28;20589;-72
2021/06/28 05:08:58;;;;;;;0.73;0.73;;;15.90;99.90;;;;;;2065972;28;20179;-71
2021/06/28 05:09:59;;;;;;;0.67;0.67;;;15.90;99.90;;;;;;2065837;28;20217;-70
2021/06/28 05:10:59;;;;;;;1.87;1.13;;;16.00;99.90;;;;;;2065176;28;20641;-71
2021/06/28 05:12:00;;;;;;;2.07;1.27;;;16.00;99.90;;;;;;2057072;28;20179;-71
2021/06/28 05:13:01;;;;;;;1.33;1.23;;;16.00;99.90;;;;;;2065272;28;20773;-72
2021/06/28 05:14:02;;;;;;;0.63;0.60;;;16.10;99.90;;;;;;2065460;28;20218;-71
2021/06/28 05:15:06;;;;;;;1.13;0.95;;;16.10;99.90;;;;;;2065830;28;20170;-72
2021/06/28 05:16:07;;;;;;;0.80;0.80;;;16.10;99.90;;;;;;2065721;28;20186;-72
2021/06/28 05:17:08;;;;;;;0.83;0.80;;;16.10;99.90;;;;;;2065772;28;20261;-71
2021/06/28 05:18:09;;;;;;;1.10;0.93;;;16.20;99.90;;;;;;2065113;28;20182;-74
2021/06/28 05:19:10;;;;;;;1.00;1.00;;;16.20;99.90;;;;;;2065129;28;20449;-70
2021/06/28 05:20:13;;;;;;;0.63;0.63;;;16.20;99.90;;;;;;2065648;28;20874;-71
2021/06/28 05:21:14;;;;;;;1.43;1.33;;;16.10;99.90;;;;;;2057012;28;20199;-71